Flesherton, Canada
Current Conditions -  °F | °C
As of 11:00 PM on Saturday 20 Dec 2014 (Local Time) from CYBN Reporting Station
Overcast Overcast  
Wind Chill: 25°   Ceiling: 6600
Heat Index: 25°   Visibility: 9mi
Dew Point: 23°   Wind: 3mph
Humidity: 93%   Direction: 200°SSW
Pressure: 30.26"   Gusts: NA
Location:  44.25°N, 80.55°W
Report Text: CYBN 210400Z AUTO 20003KT 9SM OVC066 M04/M05 A3026 RMK SLP259
Loading
Personal Weather Stations






























Interactive Weather Map New forecast layout! Learn more

10-Day Weather Forecast

Advertisements
Track Severe Weather on mobile